Merced Regional Macready Field Merced US
ICAO: KMCE
IATA: MCE
Category: Medium
Scheduled Services: No

Elevation: 155 ft
TransAlt. 18000 ft.

Airport Communications:
NORCAL APP/DEP:120.95
ASOS:132.175
CTAF/UNICOM:122.7

KMCE Zoom In..

If you have problems with the map follow the link
https://www.worldairports.se/pages/airport.php?
ICAO=KMCE

Runways:

(A) RW 12 length 5914 ft width 150 ft
---- / hdg 123

(B) RW 30 length 5914 ft width 150 ft
ILS 109.30 / hdg 303

Location; KMCE
Day. 24 / Time. 10.53 Zulu
* Altimeter: 30.19
* Temperature: 07° c. 44.6°f.
* Wind from: 290° Speed 05 kn.
Dewpoint: 06° c.
Visibility: 10 Statute Miles.
Clouds: Clear (automated report).

KMCE 241053Z AUTO 29005KT 10SM CLR 07/06 A3019 RMK AO2 SLP224 T00670056


Wind From 290°
Speed 05 kn.

 
 
jpsmedia.com for Web Design worldairports.se 2019   terms of use